createdAt,value
2018-08-08T00:00:06.717Z,4.37
2018-08-08T00:02:36.198Z,4.33
2018-08-08T00:05:05.885Z,4.13
2018-08-08T00:07:35.617Z,4.60
2018-08-08T00:10:05.547Z,4.90
2018-08-08T00:12:35.570Z,4.30
2018-08-08T00:15:05.461Z,4.73
2018-08-08T00:17:35.416Z,4.37
2018-08-08T00:20:05.702Z,4.33
2018-08-08T00:22:35.912Z,4.90
2018-08-08T00:25:07.576Z,4.63
2018-08-08T00:27:36.623Z,4.40
2018-08-08T00:30:06.414Z,4.40
2018-08-08T00:32:36.067Z,4.53
2018-08-08T00:35:05.663Z,4.60
2018-08-08T00:37:35.668Z,4.80
2018-08-08T00:40:06.233Z,4.33
2018-08-08T00:42:36.051Z,4.70
2018-08-08T00:45:07.308Z,4.90
2018-08-08T00:47:36.390Z,5.50
2018-08-08T00:50:07.170Z,4.77
2018-08-08T00:52:37.966Z,5.27
2018-08-08T00:55:07.259Z,5.30
2018-08-08T00:57:36.744Z,4.80
2018-08-08T01:00:06.874Z,4.90
2018-08-08T01:02:37.235Z,4.87
2018-08-08T01:05:08.493Z,5.00
2018-08-08T01:07:44.363Z,5.00
2018-08-08T01:10:12.573Z,5.53
2018-08-08T01:12:40.869Z,5.30
2018-08-08T01:15:10.913Z,4.90
2018-08-08T01:17:39.357Z,5.20
2018-08-08T01:20:09.776Z,5.50
2018-08-08T01:22:38.504Z,5.17
2018-08-08T01:25:09.857Z,5.33
2018-08-08T01:27:38.718Z,5.17
2018-08-08T01:30:11.461Z,5.37
2018-08-08T01:32:40.198Z,4.53
2018-08-08T01:35:12.606Z,5.27
2018-08-08T01:37:40.831Z,5.40
2018-08-08T01:40:12.583Z,5.13
2018-08-08T01:42:41.606Z,5.10
2018-08-08T01:45:11.321Z,4.87
2018-08-08T01:47:40.269Z,5.33
2018-08-08T01:50:10.702Z,4.47
2018-08-08T01:52:40.348Z,5.20
2018-08-08T01:55:10.695Z,4.87
2018-08-08T01:57:39.330Z,4.90
2018-08-08T02:00:12.203Z,5.20
2018-08-08T02:02:41.132Z,5.40
2018-08-08T02:05:09.931Z,5.40
2018-08-08T02:07:38.767Z,5.87
2018-08-08T02:10:09.606Z,5.23
2018-08-08T02:12:38.286Z,5.47
2018-08-08T02:15:08.890Z,5.47
2018-08-08T02:17:37.759Z,5.10
2018-08-08T02:20:07.608Z,5.60
2018-08-08T02:22:36.660Z,5.20
2018-08-08T02:25:06.364Z,5.90
2018-08-08T02:27:36.475Z,6.07
2018-08-08T02:30:08.852Z,6.17
2018-08-08T02:32:38.322Z,5.93
2018-08-08T02:35:06.899Z,5.83
2018-08-08T02:37:36.202Z,6.23
2018-08-08T02:40:06.416Z,5.50
2018-08-08T02:42:36.149Z,5.70
2018-08-08T02:45:06.755Z,6.73
2018-08-08T02:47:35.582Z,6.10
2018-08-08T02:50:05.730Z,6.87
2018-08-08T02:52:35.947Z,6.27
2018-08-08T02:55:06.369Z,6.93
2018-08-08T02:57:35.714Z,7.23
2018-08-08T03:00:06.112Z,6.53
2018-08-08T03:02:35.649Z,5.90
2018-08-08T03:05:05.744Z,6.50
2018-08-08T03:07:35.103Z,6.13
2018-08-08T03:10:05.567Z,6.37
2018-08-08T03:12:35.919Z,6.40
2018-08-08T03:15:07.272Z,7.47
2018-08-08T03:17:36.286Z,7.53
2018-08-08T03:20:05.985Z,7.80
2018-08-08T03:22:35.950Z,7.73
2018-08-08T03:25:07.052Z,7.33
2018-08-08T03:27:36.747Z,6.93
2018-08-08T03:30:08.619Z,7.40
2018-08-08T03:32:38.090Z,7.23
2018-08-08T03:35:06.550Z,7.30
2018-08-08T03:37:35.959Z,7.37
2018-08-08T03:40:06.675Z,7.20
2018-08-08T03:42:36.356Z,7.10
2018-08-08T03:45:05.838Z,6.60
2018-08-08T03:47:35.404Z,6.90
2018-08-08T03:50:05.273Z,6.70
2018-08-08T03:52:34.833Z,6.93
2018-08-08T03:55:03.516Z,6.20
2018-08-08T03:57:33.744Z,6.67
2018-08-08T04:00:03.469Z,6.40
2018-08-08T04:02:33.885Z,6.33
2018-08-08T04:05:03.958Z,6.70
2018-08-08T04:07:33.703Z,7.27
2018-08-08T04:10:03.792Z,6.70
2018-08-08T04:12:35.726Z,6.27
2018-08-08T04:15:08.147Z,6.87
2018-08-08T04:17:37.254Z,7.03
2018-08-08T04:20:07.127Z,7.00
2018-08-08T04:22:36.118Z,6.80
2018-08-08T04:25:06.602Z,6.50
2018-08-08T04:27:36.031Z,7.10
2018-08-08T04:30:08.339Z,7.00
2018-08-08T04:32:37.258Z,6.87
2018-08-08T04:35:05.683Z,7.20
2018-08-08T04:37:35.330Z,6.43
2018-08-08T04:40:05.176Z,6.37
2018-08-08T04:42:35.136Z,6.30
2018-08-08T04:45:04.986Z,6.00
2018-08-08T04:47:34.313Z,6.23
2018-08-08T04:50:06.304Z,6.20
2018-08-08T04:52:35.892Z,6.17
2018-08-08T04:55:06.506Z,7.17
2018-08-08T04:57:35.896Z,6.27
2018-08-08T05:00:07.179Z,6.17
2018-08-08T05:02:36.762Z,5.20
2018-08-08T05:05:05.888Z,6.30
2018-08-08T05:07:35.875Z,6.20
2018-08-08T05:10:06.385Z,7.03
2018-08-08T05:12:36.100Z,6.50
2018-08-08T05:15:06.313Z,7.10
2018-08-08T05:17:35.519Z,6.90
2018-08-08T05:20:05.331Z,6.80
2018-08-08T05:22:35.616Z,6.87
2018-08-08T05:25:05.407Z,7.17
2018-08-08T05:27:35.181Z,7.77
2018-08-08T05:30:07.076Z,7.43
2018-08-08T05:32:35.984Z,7.43
2018-08-08T05:35:05.598Z,6.73
2018-08-08T05:37:35.223Z,7.30
2018-08-08T05:40:05.901Z,7.43
2018-08-08T05:42:35.513Z,7.97
2018-08-08T05:45:05.997Z,7.57
2018-08-08T05:47:35.790Z,7.70
2018-08-08T05:50:06.428Z,7.10
2018-08-08T05:52:35.605Z,7.17
2018-08-08T05:55:05.015Z,6.77
2018-08-08T05:57:34.920Z,6.00
2018-08-08T06:00:06.577Z,6.60
2018-08-08T06:02:35.695Z,7.00
2018-08-08T06:05:06.392Z,6.27
2018-08-08T06:07:35.723Z,6.43
2018-08-08T06:10:05.561Z,6.50
2018-08-08T06:12:34.878Z,7.10
2018-08-08T06:15:05.128Z,6.97
2018-08-08T06:17:34.880Z,7.17
2018-08-08T06:20:05.094Z,8.13
2018-08-08T06:22:35.190Z,7.77
2018-08-08T06:25:04.911Z,6.93
2018-08-08T06:27:34.772Z,7.30
2018-08-08T06:30:05.202Z,7.97
2018-08-08T06:32:35.139Z,7.67
2018-08-08T06:35:05.375Z,7.47
2018-08-08T06:37:35.041Z,7.40
2018-08-08T06:40:05.173Z,6.97
2018-08-08T06:42:35.136Z,7.60
2018-08-08T06:45:04.829Z,7.30
2018-08-08T06:47:34.673Z,7.10
2018-08-08T06:50:05.099Z,7.33
2018-08-08T06:52:34.305Z,6.27
2018-08-08T06:55:03.805Z,6.03
2018-08-08T06:57:33.127Z,6.07
2018-08-08T07:00:02.767Z,5.50
2018-08-08T07:02:33.477Z,6.10
2018-08-08T07:05:07.693Z,5.13
2018-08-08T07:07:36.428Z,5.33
2018-08-08T07:10:05.661Z,5.60
2018-08-08T07:12:35.650Z,4.33
2018-08-08T07:15:06.281Z,4.33
2018-08-08T07:17:35.682Z,4.77
2018-08-08T07:20:05.850Z,4.70
2018-08-08T07:22:35.109Z,4.70
2018-08-08T07:25:05.617Z,4.67
2018-08-08T07:27:34.836Z,3.90
2018-08-08T07:30:05.503Z,3.83
2018-08-08T07:33:09.431Z,3.87
2018-08-08T07:35:37.952Z,3.57
2018-08-08T07:38:06.951Z,3.30
2018-08-08T07:40:35.872Z,3.33
2018-08-08T07:43:04.853Z,3.00
2018-08-08T07:45:35.964Z,2.83
2018-08-08T07:48:05.570Z,3.47
2018-08-08T07:50:35.770Z,3.63
2018-08-08T07:53:05.259Z,3.30
2018-08-08T07:55:34.617Z,3.33
2018-08-08T07:58:04.952Z,3.33
2018-08-08T08:00:34.846Z,3.20
2018-08-08T08:03:04.305Z,3.77
2018-08-08T08:05:34.169Z,3.60
2018-08-08T08:08:04.111Z,3.67
2018-08-08T08:10:34.454Z,4.07
2018-08-08T08:13:04.288Z,3.70
2018-08-08T08:15:34.174Z,3.33
2018-08-08T08:18:05.378Z,3.43
2018-08-08T08:20:34.593Z,3.53
2018-08-08T08:23:04.401Z,3.67
2018-08-08T08:25:34.253Z,3.20
2018-08-08T08:28:04.026Z,3.23
2018-08-08T08:30:33.823Z,3.67
2018-08-08T08:33:04.204Z,3.87
2018-08-08T08:35:34.006Z,3.77
2018-08-08T08:38:03.871Z,3.97
2018-08-08T08:40:33.471Z,3.27
2018-08-08T08:43:03.658Z,3.83
2018-08-08T08:45:32.895Z,4.10
2018-08-08T08:48:02.569Z,3.87
2018-08-08T08:50:32.431Z,4.03
2018-08-08T08:53:02.322Z,3.87
2018-08-08T08:55:32.444Z,3.70
2018-08-08T08:58:04.065Z,4.20
2018-08-08T09:00:33.339Z,4.57
2018-08-08T09:03:02.679Z,4.07
2018-08-08T09:05:33.085Z,4.10
2018-08-08T09:08:03.973Z,4.43
2018-08-08T09:10:33.429Z,4.20
2018-08-08T09:13:04.257Z,3.70
2018-08-08T09:15:34.908Z,3.47
2018-08-08T09:18:04.531Z,3.90
2018-08-08T09:20:34.158Z,4.00
2018-08-08T09:23:04.273Z,3.40
2018-08-08T09:25:34.432Z,2.97
2018-08-08T09:28:04.426Z,3.07
2018-08-08T09:30:34.006Z,2.67
2018-08-08T09:33:09.437Z,2.90
2018-08-08T09:35:38.142Z,2.47
2018-08-08T09:38:06.955Z,2.80
2018-08-08T09:40:36.363Z,2.80
2018-08-08T09:43:05.717Z,2.97
2018-08-08T09:45:35.273Z,3.40
2018-08-08T09:48:04.802Z,2.47
2018-08-08T09:50:34.652Z,3.20
2018-08-08T09:53:04.435Z,2.97
2018-08-08T09:55:34.778Z,2.87
2018-08-08T09:58:05.455Z,2.63
2018-08-08T10:00:41.134Z,2.77
2018-08-08T10:03:10.283Z,3.60
2018-08-08T10:05:39.586Z,3.10
2018-08-08T10:08:08.513Z,3.13
2018-08-08T10:10:38.008Z,3.10
2018-08-08T10:13:07.201Z,3.07
2018-08-08T10:15:36.314Z,3.47
2018-08-08T10:18:05.550Z,3.30
2018-08-08T10:20:35.291Z,3.00
2018-08-08T10:23:04.907Z,3.20
2018-08-08T10:25:34.179Z,3.00
2018-08-08T10:28:04.206Z,2.83
2018-08-08T10:30:34.490Z,2.77
2018-08-08T10:33:04.438Z,2.53
2018-08-08T10:35:35.341Z,2.63
2018-08-08T10:38:05.320Z,2.57
2018-08-08T10:40:35.237Z,2.60
2018-08-08T10:43:05.054Z,2.60
2018-08-08T10:45:34.881Z,2.60
2018-08-08T10:48:04.830Z,2.43
2018-08-08T10:50:34.138Z,2.03
2018-08-08T10:53:03.695Z,2.40
2018-08-08T10:55:33.175Z,2.73
2018-08-08T10:58:03.156Z,2.00
2018-08-08T11:00:33.543Z,2.17
2018-08-08T11:03:04.281Z,2.17
2018-08-08T11:05:34.616Z,2.07
2018-08-08T11:08:05.278Z,2.10
2018-08-08T11:10:35.348Z,1.83
2018-08-08T11:13:04.812Z,1.87
2018-08-08T11:15:34.768Z,2.30
2018-08-08T11:18:05.794Z,2.00
2018-08-08T11:20:35.523Z,1.80
2018-08-08T11:23:04.788Z,1.67
2018-08-08T11:25:35.277Z,2.10
2018-08-08T11:28:04.894Z,1.90
2018-08-08T11:30:34.635Z,1.90
2018-08-08T11:33:04.688Z,2.10
2018-08-08T11:35:34.719Z,1.80
2018-08-08T11:38:04.240Z,1.70
2018-08-08T11:40:34.204Z,1.63
2018-08-08T11:43:04.016Z,1.70
2018-08-08T11:45:33.723Z,1.50
2018-08-08T11:48:03.450Z,1.60
2018-08-08T11:50:34.219Z,1.70
2018-08-08T11:53:04.914Z,1.47
2018-08-08T11:55:34.034Z,1.50
2018-08-08T11:58:03.789Z,1.60
2018-08-08T12:00:34.235Z,1.30
2018-08-08T12:03:04.620Z,1.70
2018-08-08T12:05:34.380Z,1.70
2018-08-08T12:08:04.200Z,1.60
2018-08-08T12:10:34.295Z,1.47
2018-08-08T12:13:04.667Z,1.83
2018-08-08T12:15:35.475Z,1.63
2018-08-08T12:18:05.741Z,1.47
2018-08-08T12:20:35.447Z,1.43
2018-08-08T12:23:05.513Z,1.77
2018-08-08T12:25:34.745Z,1.63
2018-08-08T12:28:04.980Z,1.67
2018-08-08T12:30:34.299Z,2.27
2018-08-08T12:33:04.461Z,1.40
2018-08-08T12:35:33.863Z,1.07
2018-08-08T12:38:04.308Z,1.70
2018-08-08T12:40:33.654Z,1.90
2018-08-08T12:43:03.610Z,1.57
2018-08-08T12:45:33.862Z,1.87
2018-08-08T12:48:03.184Z,2.03
2018-08-08T12:50:32.628Z,1.80
2018-08-08T12:53:02.842Z,1.70
2018-08-08T12:55:32.297Z,2.00
2018-08-08T12:58:01.825Z,2.20
2018-08-08T13:00:32.556Z,1.87
2018-08-08T13:03:03.965Z,2.00
2018-08-08T13:05:33.491Z,1.97
2018-08-08T13:08:03.794Z,1.80
2018-08-08T13:10:33.837Z,1.90
2018-08-08T13:13:03.108Z,1.87
2018-08-08T13:15:32.615Z,2.10
2018-08-08T13:18:02.872Z,2.10
2018-08-08T13:20:32.510Z,2.00
2018-08-08T13:23:02.519Z,2.00
2018-08-08T13:25:32.141Z,2.07
2018-08-08T13:28:02.172Z,2.20
2018-08-08T13:30:32.130Z,2.07
2018-08-08T13:33:03.067Z,2.00
2018-08-08T13:35:33.219Z,1.80
2018-08-08T13:38:02.680Z,1.90
2018-08-08T13:40:32.839Z,2.07
2018-08-08T13:43:02.805Z,2.17
2018-08-08T13:45:34.228Z,2.30
2018-08-08T13:48:03.410Z,2.30
2018-08-08T13:50:33.514Z,2.13
2018-08-08T13:53:03.154Z,2.10
2018-08-08T13:55:32.427Z,2.10
2018-08-08T13:58:02.455Z,2.10
2018-08-08T14:00:32.034Z,2.40
2018-08-08T14:03:01.451Z,2.00
2018-08-08T14:05:30.728Z,2.30
2018-08-08T14:07:59.699Z,2.03
2018-08-08T14:10:27.943Z,1.90
2018-08-08T14:12:56.151Z,1.77
2018-08-08T14:15:24.682Z,1.90
2018-08-08T14:17:53.947Z,2.10
2018-08-08T14:20:22.440Z,2.00
2018-08-08T14:22:51.436Z,2.00
2018-08-08T14:25:19.726Z,2.00
2018-08-08T14:27:47.983Z,2.30
2018-08-08T14:30:16.208Z,1.70
2018-08-08T14:32:44.407Z,1.90
2018-08-08T14:35:12.618Z,1.87
2018-08-08T14:37:40.823Z,2.10
2018-08-08T14:40:09.262Z,2.10
2018-08-08T14:42:38.431Z,2.40
2018-08-08T14:45:07.126Z,2.30
2018-08-08T14:47:36.660Z,2.23
2018-08-08T14:50:06.632Z,1.90
2018-08-08T14:52:35.739Z,2.33
2018-08-08T14:55:04.839Z,2.23
2018-08-08T14:57:34.351Z,2.10
2018-08-08T15:00:03.814Z,2.33
2018-08-08T15:02:33.694Z,2.00
2018-08-08T15:05:04.131Z,2.73
2018-08-08T15:07:34.332Z,2.30
2018-08-08T15:10:03.871Z,2.00
2018-08-08T15:12:33.519Z,2.30
2018-08-08T15:15:02.658Z,2.30
2018-08-08T15:17:32.736Z,2.53
2018-08-08T15:20:02.558Z,1.87
2018-08-08T15:22:32.042Z,2.00
2018-08-08T15:25:02.025Z,1.90
2018-08-08T15:27:31.491Z,1.93
2018-08-08T15:30:00.712Z,1.90
2018-08-08T15:32:29.385Z,2.30
2018-08-08T15:34:57.827Z,2.00
2018-08-08T15:37:26.655Z,1.90
2018-08-08T15:39:54.650Z,2.13
2018-08-08T15:42:23.729Z,2.43
2018-08-08T15:44:52.405Z,2.10
2018-08-08T15:47:20.868Z,2.20
2018-08-08T15:49:49.103Z,2.20
2018-08-08T15:52:17.315Z,2.00
2018-08-08T15:54:45.554Z,2.23
2018-08-08T15:57:13.792Z,2.10
2018-08-08T15:59:42.003Z,2.00
2018-08-08T16:02:10.236Z,2.33
2018-08-08T16:04:39.041Z,1.57
2018-08-08T16:07:07.827Z,1.90
2018-08-08T16:09:36.630Z,2.07
2018-08-08T16:12:05.780Z,2.20
2018-08-08T16:14:34.904Z,1.93
2018-08-08T16:17:04.839Z,2.00
2018-08-08T16:19:34.143Z,1.87
2018-08-08T16:22:03.910Z,2.03
2018-08-08T16:24:33.552Z,1.80
2018-08-08T16:27:02.711Z,2.00
2018-08-08T16:29:33.318Z,1.60
2018-08-08T16:32:02.686Z,2.03
2018-08-08T16:34:32.998Z,2.20
2018-08-08T16:37:02.924Z,2.37
2018-08-08T16:39:32.377Z,1.83
2018-08-08T16:42:01.831Z,2.60
2018-08-08T16:44:30.761Z,2.73
2018-08-08T16:46:59.352Z,2.53
2018-08-08T16:49:27.727Z,2.27
2018-08-08T16:51:56.186Z,2.00
2018-08-08T16:54:24.944Z,1.67
2018-08-08T16:56:53.849Z,2.13
2018-08-08T16:59:22.844Z,1.60
2018-08-08T17:01:51.384Z,1.80
2018-08-08T17:04:19.914Z,1.70
2018-08-08T17:06:48.368Z,1.70
2018-08-08T17:09:16.791Z,2.00
2018-08-08T17:11:45.182Z,1.70
2018-08-08T17:14:13.642Z,1.67
2018-08-08T17:16:42.060Z,1.57
2018-08-08T17:19:10.428Z,1.50
2018-08-08T17:21:39.106Z,1.80
2018-08-08T17:24:07.766Z,1.90
2018-08-08T17:26:36.545Z,1.67
2018-08-08T17:29:05.699Z,1.43
2018-08-08T17:31:34.902Z,1.53
2018-08-08T17:34:04.300Z,1.67
2018-08-08T17:36:33.620Z,1.60
2018-08-08T17:39:03.622Z,1.90
2018-08-08T17:41:34.196Z,1.87
2018-08-08T17:44:03.934Z,1.80
2018-08-08T17:46:33.483Z,1.73
2018-08-08T17:49:03.923Z,1.47
2018-08-08T17:51:33.163Z,2.30
2018-08-08T17:54:07.059Z,1.67
2018-08-08T17:56:36.744Z,1.80
2018-08-08T17:59:07.411Z,1.50
2018-08-08T18:01:36.323Z,1.60
2018-08-08T18:04:05.562Z,1.63
2018-08-08T18:06:35.286Z,2.00
2018-08-08T18:09:06.612Z,1.90
2018-08-08T18:11:36.119Z,1.80
2018-08-08T18:14:05.590Z,2.00
2018-08-08T18:16:35.117Z,1.83
2018-08-08T18:19:04.468Z,2.07
2018-08-08T18:21:34.267Z,1.70
2018-08-08T18:24:03.732Z,1.60
2018-08-08T18:26:33.182Z,2.17
2018-08-08T18:29:04.109Z,1.87
2018-08-08T18:31:33.938Z,1.90
2018-08-08T18:34:03.363Z,2.10
2018-08-08T18:36:32.975Z,2.00
2018-08-08T18:39:02.714Z,2.30
2018-08-08T18:41:33.517Z,2.30
2018-08-08T18:44:04.208Z,2.07
2018-08-08T18:46:33.979Z,2.10
2018-08-08T18:49:03.445Z,2.10
2018-08-08T18:51:32.530Z,2.13
2018-08-08T18:54:01.607Z,2.27
2018-08-08T18:56:31.044Z,2.07
2018-08-08T18:58:59.700Z,2.30
2018-08-08T19:01:28.212Z,2.27
2018-08-08T19:03:56.656Z,2.20
2018-08-08T19:06:25.398Z,2.23
2018-08-08T19:08:53.787Z,1.90
2018-08-08T19:11:22.584Z,2.37
2018-08-08T19:13:51.233Z,1.93
2018-08-08T19:16:19.692Z,2.07
2018-08-08T19:18:48.115Z,2.10
2018-08-08T19:21:16.620Z,1.70
2018-08-08T19:23:45.125Z,2.30
2018-08-08T19:26:13.726Z,1.93
2018-08-08T19:28:42.272Z,2.73
2018-08-08T19:31:11.078Z,2.10
2018-08-08T19:33:40.351Z,2.43
2018-08-08T19:36:09.032Z,2.40
2018-08-08T19:38:38.056Z,2.10
2018-08-08T19:41:07.299Z,2.50
2018-08-08T19:43:36.141Z,2.10
2018-08-08T19:46:05.460Z,2.13
2018-08-08T19:48:34.448Z,2.20
2018-08-08T19:51:03.887Z,2.20
2018-08-08T19:53:33.232Z,2.50
2018-08-08T19:56:02.186Z,2.20
2018-08-08T19:58:31.438Z,2.23
2018-08-08T20:01:00.462Z,2.20
2018-08-08T20:03:29.647Z,2.10
2018-08-08T20:06:03.980Z,2.40
2018-08-08T20:08:33.514Z,2.23
2018-08-08T20:11:04.478Z,2.43
2018-08-08T20:13:33.661Z,2.63
2018-08-08T20:16:04.177Z,2.10
2018-08-08T20:18:34.623Z,2.40
2018-08-08T20:21:05.082Z,2.27
2018-08-08T20:23:36.124Z,2.50
2018-08-08T20:26:05.434Z,2.50
2018-08-08T20:28:35.123Z,2.67
2018-08-08T20:31:05.647Z,2.20
2018-08-08T20:33:36.461Z,2.77
2018-08-08T20:36:06.868Z,2.03
2018-08-08T20:38:36.238Z,2.50
2018-08-08T20:41:05.793Z,2.50
2018-08-08T20:43:35.440Z,2.30
2018-08-08T20:46:05.016Z,2.30
2018-08-08T20:48:35.351Z,2.23
2018-08-08T20:51:04.978Z,2.60
2018-08-08T20:53:35.363Z,2.50
2018-08-08T20:56:05.567Z,2.73
2018-08-08T20:58:36.227Z,2.83
2018-08-08T21:01:08.237Z,2.80
2018-08-08T21:03:38.450Z,2.73
2018-08-08T21:06:08.703Z,2.63
2018-08-08T21:08:39.023Z,3.03
2018-08-08T21:11:08.389Z,2.90
2018-08-08T21:13:37.826Z,3.33
2018-08-08T21:16:06.999Z,3.20
2018-08-08T21:18:36.636Z,3.33
2018-08-08T21:21:07.469Z,3.57
2018-08-08T21:23:36.579Z,3.60
2018-08-08T21:26:06.388Z,3.77
2018-08-08T21:28:37.629Z,3.80
2018-08-08T21:31:07.896Z,3.43
2018-08-08T21:33:37.004Z,3.40
2018-08-08T21:36:06.376Z,3.17
2018-08-08T21:38:36.172Z,2.87
2018-08-08T21:41:06.588Z,3.10
2018-08-08T21:43:36.361Z,3.30
2018-08-08T21:46:05.866Z,3.27
2018-08-08T21:48:37.316Z,2.70
2018-08-08T21:51:07.848Z,3.27
2018-08-08T21:53:48.097Z,2.50
2018-08-08T21:56:27.834Z,2.63
2018-08-08T21:59:09.012Z,3.00
2018-08-08T22:01:49.039Z,2.90
2018-08-08T22:04:28.968Z,2.60
2018-08-08T22:07:09.038Z,3.43
2018-08-08T22:09:48.891Z,3.50
2018-08-08T22:12:28.759Z,2.90
2018-08-08T22:15:09.150Z,3.20
2018-08-08T22:17:49.778Z,3.23
2018-08-08T22:20:18.194Z,3.57
2018-08-08T22:22:46.758Z,3.17
2018-08-08T22:25:16.045Z,3.17
2018-08-08T22:27:45.028Z,3.23
2018-08-08T22:30:13.656Z,3.43
2018-08-08T22:32:42.223Z,3.60
2018-08-08T22:35:11.759Z,3.90
2018-08-08T22:37:40.799Z,3.47
2018-08-08T22:40:09.971Z,3.07
2018-08-08T22:42:40.806Z,3.57
2018-08-08T22:45:11.519Z,3.73
2018-08-08T22:47:40.638Z,3.60
2018-08-08T22:50:09.571Z,3.87
2018-08-08T22:52:38.911Z,3.47
2018-08-08T22:55:08.584Z,3.57
2018-08-08T22:57:37.993Z,3.70
2018-08-08T23:00:09.305Z,3.23
2018-08-08T23:02:38.688Z,3.23
2018-08-08T23:05:07.779Z,3.87
2018-08-08T23:07:36.716Z,4.17
2018-08-08T23:10:06.685Z,3.30
2018-08-08T23:12:37.641Z,4.10
2018-08-08T23:15:08.008Z,3.40
2018-08-08T23:17:37.167Z,3.73
2018-08-08T23:20:07.025Z,3.37
2018-08-08T23:22:46.767Z,3.43
2018-08-08T23:25:15.228Z,3.57
2018-08-08T23:27:43.724Z,3.50
2018-08-08T23:30:12.244Z,4.03
2018-08-08T23:32:40.658Z,3.53
2018-08-08T23:35:09.651Z,3.60
2018-08-08T23:37:39.531Z,4.00
2018-08-08T23:40:08.719Z,3.70
2018-08-08T23:42:42.776Z,4.00
2018-08-08T23:45:11.201Z,3.40
2018-08-08T23:47:40.223Z,3.90
2018-08-08T23:50:09.643Z,3.77
2018-08-08T23:52:39.224Z,4.40
2018-08-08T23:55:08.055Z,4.23
2018-08-08T23:57:37.551Z,4.73
